This is the latest recevied weather packets stored in our database for station/object K1ZK-13. If no packets are shown the sender has not sent any weather packets the latest 1 day(s).
| Time | Temp. | Humidity | Pressure | Rain* | Wind** | Luminosity | Snow |
|---|---|---|---|---|---|---|---|
| 1777988024 | 17.22° C | 61% | 1005.7 hPa | 0 mm | 1.79 m/s, 207° | 144 W/m² | - |
| 1777987719 | 17.78° C | 60% | 1005.5 hPa | 0 mm | 2.24 m/s, 191° | 143 W/m² | - |
| 1777987417 | 18.89° C | 60% | 1005.5 hPa | 0 mm | 0 m/s | 225 W/m² | - |
| 1777987114 | 18.33° C | 58% | 1005.4 hPa | 0 mm | 1.34 m/s, 98° | 436 W/m² | - |
| 1777986811 | 17.78° C | 60% | 1005 hPa | 0 mm | 1.34 m/s, 169° | 386 W/m² | - |
| 1777986509 | 18.33° C | 58% | 1005 hPa | 0 mm | 1.79 m/s, 106° | 375 W/m² | - |
| 1777986207 | 17.78° C | 59% | 1005.1 hPa | 0 mm | 1.34 m/s, 86° | 349 W/m² | - |
| 1777985904 | 17.78° C | 60% | 1005.3 hPa | 0 mm | 0.89 m/s, 79° | 328 W/m² | - |
| 1777985297 | 16.67° C | 60% | 1005.4 hPa | 0 mm | 1.79 m/s, 178° | 306 W/m² | - |
| 1777984994 | 16.67° C | 60% | 1005.7 hPa | 0 mm | 1.79 m/s, 178° | 306 W/m² | - |
| 1777984690 | 16.67° C | 61% | 1005.5 hPa | 0 mm | 1.79 m/s, 156° | 257 W/m² | - |
| 1777984387 | 15.56° C | 63% | 1005.4 hPa | 0 mm | 0.45 m/s, 153° | 108 W/m² | - |
| 1777984083 | 15.56° C | 63% | 1005.6 hPa | 0 mm | 0.45 m/s, 153° | 108 W/m² | - |
| 1777982870 | 15.56° C | 60% | 1005.4 hPa | 0 mm | 3.58 m/s, 148° | 81 W/m² | - |
| 1777982567 | 15.56° C | 60% | 1005.4 hPa | 0 mm | 3.58 m/s, 148° | 81 W/m² | - |
| 1777982265 | 15.56° C | 61% | 1005.5 hPa | 0 mm | 0.89 m/s, 135° | 82 W/m² | - |
| 1777981963 | 15.56° C | 62% | 1005.5 hPa | 0 mm | 0.89 m/s, 132° | 75 W/m² | - |
| 1777981660 | 15.56° C | 62% | 1005.6 hPa | 0 mm | 0.45 m/s, 111° | 53 W/m² | - |
| 1777981359 | 15.56° C | 62% | 1005.4 hPa | 0 mm | 0.45 m/s, 144° | 62 W/m² | - |
| 1777981053 | 15° C | 62% | 1004.9 hPa | 0 mm | 1.34 m/s, 133° | 37 W/m² | - |
| 1777980750 | 15° C | 62% | 1005 hPa | 0 mm | 1.34 m/s, 127° | 30 W/m² | - |
| 1777980446 | 15° C | 62% | 1005.3 hPa | 0 mm | 0.89 m/s, 184° | 19 W/m² | - |
| 1777980144 | 15° C | 63% | 1005.3 hPa | 0 mm | 0.89 m/s, 93° | 19 W/m² | - |
| 1777979843 | 15° C | 63% | 1005.6 hPa | 0 mm | 0.89 m/s, 163° | 20 W/m² | - |
| 1777979539 | 15° C | 63% | 1005.4 hPa | 0 mm | 0.89 m/s, 132° | 31 W/m² | - |
* Rain latest hour (hover to see other rain measurements)
** Current wind speed in m/s (hover to see current wind gust speed)